sensor_id;sensor_type;location;lat;lon;timestamp;pressure;altitude;pressure_sealevel;temperature;humidity
52343;BME280;38277;51.972;4.624;2022-08-03T00:03:58;101650.0;;;22.2;68.0
52343;BME280;38277;51.972;4.624;2022-08-03T00:08:21;101650.0;;;22.2;68.0
52343;BME280;38277;51.972;4.624;2022-08-03T00:17:18;101650.0;;;22.1;69.0
52343;BME280;38277;51.972;4.624;2022-08-03T00:21:58;101650.0;;;22.1;69.0
52343;BME280;38277;51.972;4.624;2022-08-03T00:26:04;101660.0;;;22.1;69.5
52343;BME280;38277;51.972;4.624;2022-08-03T00:31:10;101650.0;;;22.0;70.0
52343;BME280;38277;51.972;4.624;2022-08-03T00:35:14;101650.0;;;22.0;70.5
52343;BME280;38277;51.972;4.624;2022-08-03T00:39:59;101640.0;;;21.9;70.5
52343;BME280;38277;51.972;4.624;2022-08-03T00:44:14;101650.0;;;21.9;71.0
52343;BME280;38277;51.972;4.624;2022-08-03T00:49:13;101640.0;;;21.8;71.0
52343;BME280;38277;51.972;4.624;2022-08-03T00:53:17;101630.0;;;21.8;71.5
52343;BME280;38277;51.972;4.624;2022-08-03T00:58:01;101640.0;;;21.7;72.0
52343;BME280;38277;51.972;4.624;2022-08-03T01:01:55;101640.0;;;21.7;72.0
52343;BME280;38277;51.972;4.624;2022-08-03T01:06:42;101620.0;;;21.7;72.0
52343;BME280;38277;51.972;4.624;2022-08-03T01:11:16;101620.0;;;21.7;72.0
52343;BME280;38277;51.972;4.624;2022-08-03T01:16:12;101620.0;;;21.6;72.5
52343;BME280;38277;51.972;4.624;2022-08-03T01:20:13;101620.0;;;21.6;72.5
52343;BME280;38277;51.972;4.624;2022-08-03T01:30:12;101620.0;;;21.5;73.0
52343;BME280;38277;51.972;4.624;2022-08-03T01:34:15;101620.0;;;21.5;73.0
52343;BME280;38277;51.972;4.624;2022-08-03T01:38:03;101620.0;;;21.4;73.0
52343;BME280;38277;51.972;4.624;2022-08-03T01:42:49;101640.0;;;21.4;73.0
52343;BME280;38277;51.972;4.624;2022-08-03T01:47:00;101620.0;;;21.4;73.0
52343;BME280;38277;51.972;4.624;2022-08-03T01:52:10;101630.0;;;21.4;73.5
52343;BME280;38277;51.972;4.624;2022-08-03T01:56:13;101620.0;;;21.3;73.5
52343;BME280;38277;51.972;4.624;2022-08-03T02:05:10;101620.0;;;21.2;74.0
52343;BME280;38277;51.972;4.624;2022-08-03T02:10:18;101620.0;;;21.2;74.0
52343;BME280;38277;51.972;4.624;2022-08-03T02:14:21;101610.0;;;21.2;74.0
52343;BME280;38277;51.972;4.624;2022-08-03T02:18:47;101600.0;;;21.1;74.0
52343;BME280;38277;51.972;4.624;2022-08-03T02:23:13;101600.0;;;21.1;74.0
52343;BME280;38277;51.972;4.624;2022-08-03T02:28:10;101610.0;;;21.1;74.0
52343;BME280;38277;51.972;4.624;2022-08-03T02:32:16;101600.0;;;21.1;74.0
52343;BME280;38277;51.972;4.624;2022-08-03T02:36:48;101600.0;;;21.1;74.0
52343;BME280;38277;51.972;4.624;2022-08-03T02:41:15;101600.0;;;21.0;74.0
52343;BME280;38277;51.972;4.624;2022-08-03T02:45:59;101590.0;;;21.0;74.5
52343;BME280;38277;51.972;4.624;2022-08-03T02:50:13;101590.0;;;20.9;74.5
52343;BME280;38277;51.972;4.624;2022-08-03T02:54:59;101590.0;;;20.9;74.5
52343;BME280;38277;51.972;4.624;2022-08-03T02:59:00;101590.0;;;20.8;75.0
52343;BME280;38277;51.972;4.624;2022-08-03T03:03:48;101590.0;;;20.8;75.0
52343;BME280;38277;51.972;4.624;2022-08-03T03:08:17;101580.0;;;20.8;75.0
52343;BME280;38277;51.972;4.624;2022-08-03T03:17:00;101570.0;;;20.7;75.5
52343;BME280;38277;51.972;4.624;2022-08-03T03:21:58;101580.0;;;20.7;75.5
52343;BME280;38277;51.972;4.624;2022-08-03T03:30:43;101580.0;;;20.6;76.0
52343;BME280;38277;51.972;4.624;2022-08-03T03:35:06;101580.0;;;20.6;76.0
52343;BME280;38277;51.972;4.624;2022-08-03T03:39:45;101580.0;;;20.6;76.5
52343;BME280;38277;51.972;4.624;2022-08-03T03:43:56;101590.0;;;20.6;76.5
52343;BME280;38277;51.972;4.624;2022-08-03T03:48:33;101580.0;;;20.5;76.5
52343;BME280;38277;51.972;4.624;2022-08-03T03:53:14;101590.0;;;20.5;77.0
52343;BME280;38277;51.972;4.624;2022-08-03T03:57:43;101590.0;;;20.5;77.0
52343;BME280;38277;51.972;4.624;2022-08-03T04:07:10;101590.0;;;20.4;77.0
52343;BME280;38277;51.972;4.624;2022-08-03T04:11:18;101590.0;;;20.4;77.5
52343;BME280;38277;51.972;4.624;2022-08-03T04:15:32;101590.0;;;20.3;77.5
52343;BME280;38277;51.972;4.624;2022-08-03T04:25:13;101600.0;;;20.3;78.0
52343;BME280;38277;51.972;4.624;2022-08-03T04:29:00;101600.0;;;20.3;78.0
52343;BME280;38277;51.972;4.624;2022-08-03T04:33:30;101590.0;;;20.2;78.5
52343;BME280;38277;51.972;4.624;2022-08-03T04:43:19;101610.0;;;20.2;78.5
52343;BME280;38277;51.972;4.624;2022-08-03T04:46:59;101600.0;;;20.3;78.5
52343;BME280;38277;51.972;4.624;2022-08-03T04:51:36;101600.0;;;20.2;78.5
52343;BME280;38277;51.972;4.624;2022-08-03T04:56:04;101610.0;;;20.3;78.5
52343;BME280;38277;51.972;4.624;2022-08-03T05:00:36;101610.0;;;20.3;78.5
52343;BME280;38277;51.972;4.624;2022-08-03T05:04:53;101620.0;;;20.3;78.5
52343;BME280;38277;51.972;4.624;2022-08-03T05:09:24;101620.0;;;20.3;78.5
52343;BME280;38277;51.972;4.624;2022-08-03T05:14:06;101620.0;;;20.3;78.5
52343;BME280;38277;51.972;4.624;2022-08-03T05:18:48;101620.0;;;20.4;78.5
52343;BME280;38277;51.972;4.624;2022-08-03T05:22:58;101630.0;;;20.4;78.5
52343;BME280;38277;51.972;4.624;2022-08-03T05:27:34;101630.0;;;20.5;78.5
52343;BME280;38277;51.972;4.624;2022-08-03T05:31:56;101630.0;;;20.5;78.5
52343;BME280;38277;51.972;4.624;2022-08-03T05:36:51;101640.0;;;20.6;78.5
52343;BME280;38277;51.972;4.624;2022-08-03T05:41:13;101640.0;;;20.7;78.0
52343;BME280;38277;51.972;4.624;2022-08-03T05:45:35;101640.0;;;20.7;78.0
52343;BME280;38277;51.972;4.624;2022-08-03T05:54:38;101630.0;;;21.0;77.0
52343;BME280;38277;51.972;4.624;2022-08-03T05:59:05;101640.0;;;21.2;76.5
52343;BME280;38277;51.972;4.624;2022-08-03T06:03:41;101630.0;;;21.3;75.5
52343;BME280;38277;51.972;4.624;2022-08-03T06:12:53;101640.0;;;21.6;75.0
52343;BME280;38277;51.972;4.624;2022-08-03T06:17:00;101630.0;;;21.7;74.5
52343;BME280;38277;51.972;4.624;2022-08-03T06:21:44;101640.0;;;21.9;73.5
52343;BME280;38277;51.972;4.624;2022-08-03T06:30:51;101640.0;;;22.0;72.5
52343;BME280;38277;51.972;4.624;2022-08-03T06:34:59;101630.0;;;22.0;72.0
52343;BME280;38277;51.972;4.624;2022-08-03T06:39:30;101630.0;;;22.0;71.5
52343;BME280;38277;51.972;4.624;2022-08-03T06:44:22;101650.0;;;21.9;72.0
52343;BME280;38277;51.972;4.624;2022-08-03T06:48:50;101650.0;;;21.9;72.0
52343;BME280;38277;51.972;4.624;2022-08-03T06:53:20;101660.0;;;22.0;72.0
52343;BME280;38277;51.972;4.624;2022-08-03T06:57:25;101660.0;;;22.0;71.5
52343;BME280;38277;51.972;4.624;2022-08-03T07:06:42;101650.0;;;22.3;70.5
52343;BME280;38277;51.972;4.624;2022-08-03T07:11:02;101650.0;;;22.3;70.5
52343;BME280;38277;51.972;4.624;2022-08-03T07:15:45;101660.0;;;22.3;70.0
52343;BME280;38277;51.972;4.624;2022-08-03T07:24:44;101680.0;;;22.4;69.5
52343;BME280;38277;51.972;4.624;2022-08-03T07:29:06;101670.0;;;22.5;68.5
52343;BME280;38277;51.972;4.624;2022-08-03T07:34:11;101680.0;;;22.4;69.0
52343;BME280;38277;51.972;4.624;2022-08-03T07:42:28;101690.0;;;22.4;69.0
52343;BME280;38277;51.972;4.624;2022-08-03T07:46:53;101690.0;;;22.5;69.0
52343;BME280;38277;51.972;4.624;2022-08-03T07:51:43;101690.0;;;22.6;69.0
52343;BME280;38277;51.972;4.624;2022-08-03T08:00:24;101690.0;;;22.8;68.0
52343;BME280;38277;51.972;4.624;2022-08-03T08:05:14;101690.0;;;23.0;67.5
52343;BME280;38277;51.972;4.624;2022-08-03T08:09:40;101700.0;;;23.0;67.0
52343;BME280;38277;51.972;4.624;2022-08-03T08:19:07;101700.0;;;23.2;65.5
52343;BME280;38277;51.972;4.624;2022-08-03T08:22:54;101700.0;;;23.3;65.0
52343;BME280;38277;51.972;4.624;2022-08-03T08:27:40;101690.0;;;23.3;65.5
52343;BME280;38277;51.972;4.624;2022-08-03T08:32:19;101700.0;;;23.4;65.0
52343;BME280;38277;51.972;4.624;2022-08-03T08:36:48;101700.0;;;23.5;65.0
52343;BME280;38277;51.972;4.624;2022-08-03T08:40:55;101700.0;;;23.7;64.5
52343;BME280;38277;51.972;4.624;2022-08-03T08:45:56;101690.0;;;23.9;63.0
52343;BME280;38277;51.972;4.624;2022-08-03T08:50:01;101690.0;;;24.1;63.0
52343;BME280;38277;51.972;4.624;2022-08-03T08:55:09;101690.0;;;24.2;62.5
52343;BME280;38277;51.972;4.624;2022-08-03T08:59:13;101690.0;;;24.4;61.5
52343;BME280;38277;51.972;4.624;2022-08-03T09:03:54;101690.0;;;24.5;61.5
52343;BME280;38277;51.972;4.624;2022-08-03T09:17:12;101700.0;;;25.0;59.5
52343;BME280;38277;51.972;4.624;2022-08-03T09:22:17;101700.0;;;25.2;59.0
52343;BME280;38277;51.972;4.624;2022-08-03T09:26:22;101710.0;;;25.4;58.5
52343;BME280;38277;51.972;4.624;2022-08-03T09:30:58;101700.0;;;25.6;58.0
52343;BME280;38277;51.972;4.624;2022-08-03T09:35:02;101690.0;;;25.7;57.5
52343;BME280;38277;51.972;4.624;2022-08-03T09:40:32;101710.0;;;25.8;56.0
52343;BME280;38277;51.972;4.624;2022-08-03T09:44:14;101700.0;;;25.9;55.5
52343;BME280;38277;51.972;4.624;2022-08-03T09:48:51;101700.0;;;26.0;55.0
52343;BME280;38277;51.972;4.624;2022-08-03T09:53:00;101700.0;;;26.1;54.5
52343;BME280;38277;51.972;4.624;2022-08-03T09:58:10;101700.0;;;26.2;54.0
52343;BME280;38277;51.972;4.624;2022-08-03T10:02:26;101690.0;;;26.4;53.5
52343;BME280;38277;51.972;4.624;2022-08-03T10:11:29;101690.0;;;26.8;52.0
52343;BME280;38277;51.972;4.624;2022-08-03T10:16:07;101690.0;;;27.0;51.5
52343;BME280;38277;51.972;4.624;2022-08-03T10:20:01;101680.0;;;27.1;50.5
52343;BME280;38277;51.972;4.624;2022-08-03T10:24:28;101690.0;;;27.3;50.0
52343;BME280;38277;51.972;4.624;2022-08-03T10:29:21;101690.0;;;27.4;50.0
52343;BME280;38277;51.972;4.624;2022-08-03T10:34:00;101680.0;;;27.7;49.5
52343;BME280;38277;51.972;4.624;2022-08-03T10:38:11;101680.0;;;27.9;48.5
52343;BME280;38277;51.972;4.624;2022-08-03T10:43:09;101670.0;;;28.1;48.5
52343;BME280;38277;51.972;4.624;2022-08-03T10:47:08;101680.0;;;28.5;47.0
52343;BME280;38277;51.972;4.624;2022-08-03T10:51:55;101680.0;;;28.9;45.5
52343;BME280;38277;51.972;4.624;2022-08-03T10:56:37;101670.0;;;29.5;44.5
52343;BME280;38277;51.972;4.624;2022-08-03T11:00:49;101660.0;;;29.9;43.0
52343;BME280;38277;51.972;4.624;2022-08-03T11:05:47;101660.0;;;30.2;42.5
52343;BME280;38277;51.972;4.624;2022-08-03T11:14:20;101660.0;;;31.0;39.5
52343;BME280;38277;51.972;4.624;2022-08-03T11:22:54;101650.0;;;31.8;36.0
52343;BME280;38277;51.972;4.624;2022-08-03T11:28:27;101650.0;;;32.2;36.0
52343;BME280;38277;51.972;4.624;2022-08-03T11:37:23;101660.0;;;33.2;34.5
52343;BME280;38277;51.972;4.624;2022-08-03T11:41:35;101650.0;;;33.8;34.0
52343;BME280;38277;51.972;4.624;2022-08-03T11:45:57;101650.0;;;34.6;32.5
52343;BME280;38277;51.972;4.624;2022-08-03T11:50:12;101650.0;;;35.2;32.0
52343;BME280;38277;51.972;4.624;2022-08-03T11:55:07;101640.0;;;36.0;30.5
52343;BME280;38277;51.972;4.624;2022-08-03T11:58:58;101640.0;;;36.5;29.5
52343;BME280;38277;51.972;4.624;2022-08-03T12:04:06;101640.0;;;36.9;28.5
52343;BME280;38277;51.972;4.624;2022-08-03T12:17:08;101640.0;;;38.1;27.0
52343;BME280;38277;51.972;4.624;2022-08-03T12:22:02;101630.0;;;38.1;27.0
52343;BME280;38277;51.972;4.624;2022-08-03T12:26:16;101640.0;;;38.0;27.0
52343;BME280;38277;51.972;4.624;2022-08-03T12:35:35;101630.0;;;38.5;26.0
52343;BME280;38277;51.972;4.624;2022-08-03T12:39:59;101630.0;;;38.1;27.0
52343;BME280;38277;51.972;4.624;2022-08-03T12:44:06;101620.0;;;38.8;25.5
52343;BME280;38277;51.972;4.624;2022-08-03T12:49:07;101620.0;;;38.7;25.5
52343;BME280;38277;51.972;4.624;2022-08-03T12:52:54;101620.0;;;39.0;25.0
52343;BME280;38277;51.972;4.624;2022-08-03T13:02:13;101620.0;;;38.5;26.0
52343;BME280;38277;51.972;4.624;2022-08-03T13:11:19;101620.0;;;39.5;25.0
52343;BME280;38277;51.972;4.624;2022-08-03T13:15:51;101610.0;;;39.9;24.5
52343;BME280;38277;51.972;4.624;2022-08-03T13:19:54;101620.0;;;40.2;23.5
52343;BME280;38277;51.972;4.624;2022-08-03T13:29:20;101610.0;;;41.4;22.0
52343;BME280;38277;51.972;4.624;2022-08-03T13:38:04;101610.0;;;41.8;21.5
52343;BME280;38277;51.972;4.624;2022-08-03T13:42:51;101600.0;;;41.8;21.0
52343;BME280;38277;51.972;4.624;2022-08-03T13:46:57;101600.0;;;41.2;21.5
52343;BME280;38277;51.972;4.624;2022-08-03T13:51:36;101580.0;;;40.5;22.5
52343;BME280;38277;51.972;4.624;2022-08-03T13:56:15;101610.0;;;41.1;22.0
52343;BME280;38277;51.972;4.624;2022-08-03T14:00:46;101590.0;;;42.0;21.0
52343;BME280;38277;51.972;4.624;2022-08-03T14:05:05;101590.0;;;42.2;20.5
52343;BME280;38277;51.972;4.624;2022-08-03T14:09:39;101590.0;;;42.5;20.5
52343;BME280;38277;51.972;4.624;2022-08-03T14:14:10;101580.0;;;42.8;20.0
52343;BME280;38277;51.972;4.624;2022-08-03T14:18:24;101580.0;;;42.3;21.0
52343;BME280;38277;51.972;4.624;2022-08-03T14:22:58;101580.0;;;42.5;20.5
52343;BME280;38277;51.972;4.624;2022-08-03T14:27:41;101590.0;;;43.2;20.0
52343;BME280;38277;51.972;4.624;2022-08-03T14:32:15;101580.0;;;43.2;19.5
52343;BME280;38277;51.972;4.624;2022-08-03T14:36:41;101580.0;;;43.1;20.0
52343;BME280;38277;51.972;4.624;2022-08-03T14:41:01;101570.0;;;43.1;19.5
52343;BME280;38277;51.972;4.624;2022-08-03T14:45:42;101570.0;;;42.7;20.5
52343;BME280;38277;51.972;4.624;2022-08-03T14:50:18;101570.0;;;43.0;20.5
52343;BME280;38277;51.972;4.624;2022-08-03T14:54:46;101570.0;;;43.7;19.5
52343;BME280;38277;51.972;4.624;2022-08-03T14:59:01;101560.0;;;44.1;19.0
52343;BME280;38277;51.972;4.624;2022-08-03T15:03:24;101560.0;;;43.9;19.0
52343;BME280;38277;51.972;4.624;2022-08-03T15:08:22;101560.0;;;43.2;19.5
52343;BME280;38277;51.972;4.624;2022-08-03T15:12:28;101560.0;;;43.3;20.0
52343;BME280;38277;51.972;4.624;2022-08-03T15:17:03;101550.0;;;44.0;19.5
52343;BME280;38277;51.972;4.624;2022-08-03T15:25:55;101540.0;;;45.3;18.0
52343;BME280;38277;51.972;4.624;2022-08-03T15:30:31;101540.0;;;45.4;18.5
52343;BME280;38277;51.972;4.624;2022-08-03T15:35:22;101530.0;;;45.6;18.0
52343;BME280;38277;51.972;4.624;2022-08-03T15:39:51;101530.0;;;45.7;18.0
52343;BME280;38277;51.972;4.624;2022-08-03T15:43:54;101530.0;;;45.9;17.5
52343;BME280;38277;51.972;4.624;2022-08-03T15:48:48;101520.0;;;46.1;17.5
52343;BME280;38277;51.972;4.624;2022-08-03T15:53:04;101510.0;;;46.2;17.0
52343;BME280;38277;51.972;4.624;2022-08-03T15:57:23;101510.0;;;46.0;17.0
52343;BME280;38277;51.972;4.624;2022-08-03T16:02:08;101500.0;;;46.2;17.0
52343;BME280;38277;51.972;4.624;2022-08-03T16:06:44;101510.0;;;46.3;17.0
52343;BME280;38277;51.972;4.624;2022-08-03T16:11:17;101520.0;;;45.3;17.5
52343;BME280;38277;51.972;4.624;2022-08-03T16:15:36;101510.0;;;42.9;19.5
52343;BME280;38277;51.972;4.624;2022-08-03T16:20:20;101510.0;;;40.8;21.5
52343;BME280;38277;51.972;4.624;2022-08-03T16:24:36;101520.0;;;39.2;23.5
52343;BME280;38277;51.972;4.624;2022-08-03T16:29:36;101520.0;;;37.8;25.5
52343;BME280;38277;51.972;4.624;2022-08-03T16:33:40;101510.0;;;36.7;27.0
52343;BME280;38277;51.972;4.624;2022-08-03T16:38:22;101510.0;;;36.0;28.5
52343;BME280;38277;51.972;4.624;2022-08-03T16:42:50;101520.0;;;35.3;29.5
52343;BME280;38277;51.972;4.624;2022-08-03T16:47:12;101510.0;;;35.0;30.5
52343;BME280;38277;51.972;4.624;2022-08-03T16:51:49;101510.0;;;34.8;30.5
52343;BME280;38277;51.972;4.624;2022-08-03T16:56:10;101510.0;;;34.3;31.5
52343;BME280;38277;51.972;4.624;2022-08-03T17:00:24;101510.0;;;33.8;32.0
52343;BME280;38277;51.972;4.624;2022-08-03T17:05:30;101510.0;;;33.3;33.0
52343;BME280;38277;51.972;4.624;2022-08-03T17:09:26;101510.0;;;32.9;34.0
52343;BME280;38277;51.972;4.624;2022-08-03T17:14:09;101510.0;;;32.5;34.5
52343;BME280;38277;51.972;4.624;2022-08-03T17:18:29;101510.0;;;32.2;35.0
52343;BME280;38277;51.972;4.624;2022-08-03T17:23:07;101510.0;;;31.9;35.5
52343;BME280;38277;51.972;4.624;2022-08-03T17:27:42;101500.0;;;31.7;36.0
52343;BME280;38277;51.972;4.624;2022-08-03T17:32:21;101510.0;;;31.6;36.0
52343;BME280;38277;51.972;4.624;2022-08-03T17:36:53;101510.0;;;31.5;36.5
52343;BME280;38277;51.972;4.624;2022-08-03T17:41:13;101510.0;;;31.4;36.5
52343;BME280;38277;51.972;4.624;2022-08-03T17:45:46;101510.0;;;31.3;37.0
52343;BME280;38277;51.972;4.624;2022-08-03T17:50:16;101510.0;;;31.1;37.5
52343;BME280;38277;51.972;4.624;2022-08-03T17:55:06;101520.0;;;31.0;38.0
52343;BME280;38277;51.972;4.624;2022-08-03T17:59:33;101520.0;;;31.0;38.0
52343;BME280;38277;51.972;4.624;2022-08-03T18:04:03;101520.0;;;31.1;38.0
52343;BME280;38277;51.972;4.624;2022-08-03T18:08:00;101510.0;;;31.1;38.0
52343;BME280;38277;51.972;4.624;2022-08-03T18:17:41;101520.0;;;31.0;38.5
52343;BME280;38277;51.972;4.624;2022-08-03T18:21:24;101520.0;;;31.0;38.5
52343;BME280;38277;51.972;4.624;2022-08-03T18:26:08;101530.0;;;30.9;39.0
52343;BME280;38277;51.972;4.624;2022-08-03T18:30:25;101520.0;;;30.8;39.0
52343;BME280;38277;51.972;4.624;2022-08-03T18:35:05;101530.0;;;30.6;39.0
52343;BME280;38277;51.972;4.624;2022-08-03T18:39:23;101530.0;;;30.4;39.5
52343;BME280;38277;51.972;4.624;2022-08-03T18:43:54;101540.0;;;30.2;40.0
52343;BME280;38277;51.972;4.624;2022-08-03T18:49:02;101530.0;;;30.0;40.0
52343;BME280;38277;51.972;4.624;2022-08-03T18:53:38;101530.0;;;29.8;40.5
52343;BME280;38277;51.972;4.624;2022-08-03T18:57:43;101530.0;;;29.6;40.5
52343;BME280;38277;51.972;4.624;2022-08-03T19:02:18;101520.0;;;29.4;41.0
52343;BME280;38277;51.972;4.624;2022-08-03T19:06:36;101530.0;;;29.2;41.5
52343;BME280;38277;51.972;4.624;2022-08-03T19:11:16;101530.0;;;29.1;42.0
52343;BME280;38277;51.972;4.624;2022-08-03T19:15:46;101530.0;;;28.9;42.0
52343;BME280;38277;51.972;4.624;2022-08-03T19:20:02;101530.0;;;28.7;42.5
52343;BME280;38277;51.972;4.624;2022-08-03T19:24:44;101530.0;;;28.6;42.5
52343;BME280;38277;51.972;4.624;2022-08-03T19:29:17;101520.0;;;28.5;43.0
52343;BME280;38277;51.972;4.624;2022-08-03T19:33:26;101530.0;;;28.3;43.5
52343;BME280;38277;51.972;4.624;2022-08-03T19:37:56;101540.0;;;28.2;43.5
52343;BME280;38277;51.972;4.624;2022-08-03T19:42:33;101540.0;;;28.2;44.5
52343;BME280;38277;51.972;4.624;2022-08-03T19:47:10;101550.0;;;28.0;45.0
52343;BME280;38277;51.972;4.624;2022-08-03T19:51:38;101540.0;;;27.9;46.0
52343;BME280;38277;51.972;4.624;2022-08-03T19:56:22;101550.0;;;27.7;46.5
52343;BME280;38277;51.972;4.624;2022-08-03T20:05:24;101540.0;;;27.4;47.0
52343;BME280;38277;51.972;4.624;2022-08-03T20:09:51;101530.0;;;27.3;47.5
52343;BME280;38277;51.972;4.624;2022-08-03T20:14:22;101530.0;;;27.2;48.0
52343;BME280;38277;51.972;4.624;2022-08-03T20:23:30;101530.0;;;27.0;49.5
52343;BME280;38277;51.972;4.624;2022-08-03T20:27:33;101530.0;;;26.8;50.0
52343;BME280;38277;51.972;4.624;2022-08-03T20:31:53;101530.0;;;26.8;50.0
52343;BME280;38277;51.972;4.624;2022-08-03T20:36:39;101520.0;;;26.7;50.5
52343;BME280;38277;51.972;4.624;2022-08-03T20:41:17;101530.0;;;26.6;51.5
52343;BME280;38277;51.972;4.624;2022-08-03T20:45:46;101530.0;;;26.5;52.0
52343;BME280;38277;51.972;4.624;2022-08-03T20:49:53;101520.0;;;26.5;52.5
52343;BME280;38277;51.972;4.624;2022-08-03T20:54:43;101530.0;;;26.4;52.5
52343;BME280;38277;51.972;4.624;2022-08-03T20:58:56;101520.0;;;26.3;53.0
52343;BME280;38277;51.972;4.624;2022-08-03T21:03:50;101520.0;;;26.2;53.5
52343;BME280;38277;51.972;4.624;2022-08-03T21:08:15;101510.0;;;26.1;54.0
52343;BME280;38277;51.972;4.624;2022-08-03T21:17:22;101500.0;;;25.9;55.0
52343;BME280;38277;51.972;4.624;2022-08-03T21:21:32;101500.0;;;25.8;55.5
52343;BME280;38277;51.972;4.624;2022-08-03T21:26:04;101490.0;;;25.8;55.5
52343;BME280;38277;51.972;4.624;2022-08-03T21:34:55;101490.0;;;25.7;56.5
52343;BME280;38277;51.972;4.624;2022-08-03T21:39:48;101490.0;;;25.6;57.0
52343;BME280;38277;51.972;4.624;2022-08-03T21:44:04;101490.0;;;25.5;57.0
52343;BME280;38277;51.972;4.624;2022-08-03T21:48:27;101490.0;;;25.4;57.5
52343;BME280;38277;51.972;4.624;2022-08-03T21:52:57;101490.0;;;25.4;58.0
52343;BME280;38277;51.972;4.624;2022-08-03T21:57:44;101480.0;;;25.3;58.0
52343;BME280;38277;51.972;4.624;2022-08-03T22:01:57;101480.0;;;25.3;58.0
52343;BME280;38277;51.972;4.624;2022-08-03T22:11:19;101490.0;;;25.2;59.0
52343;BME280;38277;51.972;4.624;2022-08-03T22:15:51;101480.0;;;25.1;59.0
52343;BME280;38277;51.972;4.624;2022-08-03T22:20:13;101480.0;;;25.1;59.5
52343;BME280;38277;51.972;4.624;2022-08-03T22:29:38;101480.0;;;25.0;60.5
52343;BME280;38277;51.972;4.624;2022-08-03T22:33:29;101480.0;;;24.9;60.5
52343;BME280;38277;51.972;4.624;2022-08-03T22:38:24;101480.0;;;24.8;61.0
52343;BME280;38277;51.972;4.624;2022-08-03T22:42:42;101490.0;;;24.7;61.0
52343;BME280;38277;51.972;4.624;2022-08-03T22:46:54;101490.0;;;24.7;61.5
52343;BME280;38277;51.972;4.624;2022-08-03T22:51:48;101480.0;;;24.6;61.5
52343;BME280;38277;51.972;4.624;2022-08-03T22:56:06;101480.0;;;24.6;61.5
52343;BME280;38277;51.972;4.624;2022-08-03T23:01:24;101480.0;;;24.5;62.0
52343;BME280;38277;51.972;4.624;2022-08-03T23:05:22;101480.0;;;24.5;62.0
52343;BME280;38277;51.972;4.624;2022-08-03T23:09:46;101480.0;;;24.5;62.0
52343;BME280;38277;51.972;4.624;2022-08-03T23:14:18;101480.0;;;24.4;62.5
52343;BME280;38277;51.972;4.624;2022-08-03T23:23:23;101480.0;;;24.3;62.5
52343;BME280;38277;51.972;4.624;2022-08-03T23:27:33;101480.0;;;24.3;63.0
52343;BME280;38277;51.972;4.624;2022-08-03T23:32:05;101480.0;;;24.2;63.0
52343;BME280;38277;51.972;4.624;2022-08-03T23:36:48;101480.0;;;24.2;63.0
52343;BME280;38277;51.972;4.624;2022-08-03T23:41:16;101480.0;;;24.2;63.0
52343;BME280;38277;51.972;4.624;2022-08-03T23:45:25;101470.0;;;24.1;63.5
52343;BME280;38277;51.972;4.624;2022-08-03T23:50:05;101470.0;;;24.1;63.5
